Time;durP1;ratioP1;P1;durP2;ratioP2;P2;SDS_P1;SDS_P2;PMS_P1;PMS_P2;Temp;Humidity;BMP_temperature;BMP_pressure;BME280_temperature;BME280_humidity;BME280_pressure;Samples;Min_cycle;Max_cycle;Signal;HPM_P1;HPM_P2
2022/04/24 04:22:32;;;;;;;30.83;16.73;;;;;;;10.49;89.36;98427.88;5162735;27;20341;-73
2022/04/24 04:24:58;;;;;;;27.77;16.48;;;;;;;10.51;89.33;98429.31;5129918;28;20031;-73
2022/04/24 04:27:26;;;;;;;26.65;17.23;;;;;;;10.51;90.11;98429.31;5129819;27;20039;-73
2022/04/24 04:29:53;;;;;;;33.03;18.73;;;;;;;10.49;90.72;98434.00;5128709;28;20036;-74
2022/04/24 04:32:18;;;;;;;33.33;19.20;;;;;;;10.48;90.74;98431.56;5129565;27;20643;-73
2022/04/24 04:34:44;;;;;;;29.15;17.75;;;;;;;10.50;91.14;98435.66;5130121;27;20046;-74
2022/04/24 04:37:09;;;;;;;31.13;18.58;;;;;;;10.48;92.00;98424.41;5129648;27;20027;-74
2022/04/24 04:39:35;;;;;;;30.73;18.17;;;;;;;10.51;91.85;98439.13;5129673;27;20549;-73
2022/04/24 04:42:01;;;;;;;29.45;17.27;;;;;;;10.50;91.88;98440.97;5129363;27;20038;-72
2022/04/24 04:44:26;;;;;;;28.73;17.33;;;;;;;10.46;92.11;98438.97;5129515;27;20096;-74
2022/04/24 04:46:52;;;;;;;31.08;19.05;;;;;;;10.50;92.22;98442.84;5128114;27;20078;-73
2022/04/24 04:49:17;;;;;;;29.02;18.10;;;;;;;10.48;92.39;98450.19;5129353;27;20027;-72
2022/04/24 04:51:43;;;;;;;31.90;17.85;;;;;;;10.44;92.75;98457.81;5128980;27;20464;-75
2022/04/24 04:54:08;;;;;;;29.58;17.88;;;;;;;10.44;93.07;98457.00;5129357;27;20093;-74
2022/04/24 04:56:34;;;;;;;31.55;18.13;;;;;;;10.50;92.56;98462.28;5129225;27;20050;-74
2022/04/24 04:59:00;;;;;;;29.98;17.77;;;;;;;10.46;93.71;98468.25;5129239;27;20118;-73
2022/04/24 05:01:25;;;;;;;25.25;15.88;;;;;;;10.44;94.05;98473.78;5128939;27;20039;-73
2022/04/24 05:03:51;;;;;;;28.05;16.77;;;;;;;10.43;94.30;98477.50;5128940;27;20032;-73
2022/04/24 05:06:16;;;;;;;28.17;15.60;;;;;;;10.40;94.08;98467.25;5129043;27;20526;-73
2022/04/24 05:08:42;;;;;;;20.92;13.63;;;;;;;10.35;95.41;98471.59;5129099;27;20062;-74
2022/04/24 05:11:07;;;;;;;21.13;12.05;;;;;;;10.20;96.33;98474.50;5110710;28;20032;-74
2022/04/24 05:13:33;;;;;;;19.13;11.55;;;;;;;10.11;97.65;98471.31;5128575;27;20111;-74
2022/04/24 05:15:59;;;;;;;16.65;10.15;;;;;;;10.04;98.05;98484.63;5127566;28;20042;-73
2022/04/24 05:18:26;;;;;;;18.08;9.90;;;;;;;10.04;99.19;98489.97;5128811;27;20395;-74
2022/04/24 05:20:52;;;;;;;14.83;9.07;;;;;;;9.92;100.00;98494.31;5128687;27;20046;-74
2022/04/24 05:23:18;;;;;;;14.25;8.02;;;;;;;9.89;99.74;98497.38;5128479;27;20114;-74
2022/04/24 05:25:43;;;;;;;14.77;9.55;;;;;;;9.85;100.00;98496.19;5128826;27;20552;-74
2022/04/24 05:28:09;;;;;;;12.35;7.28;;;;;;;9.81;100.00;98510.09;5128641;27;20050;-73
2022/04/24 05:30:34;;;;;;;8.90;6.00;;;;;;;9.76;100.00;98514.19;5128614;27;20039;-73
2022/04/24 05:33:00;;;;;;;10.00;6.22;;;;;;;9.66;100.00;98521.81;5119948;27;20035;-73
2022/04/24 05:35:26;;;;;;;7.60;5.07;;;;;;;9.65;100.00;98522.00;5114801;28;20040;-74
2022/04/24 05:37:51;;;;;;;10.55;5.57;;;;;;;9.59;100.00;98526.31;5113448;28;20050;-73
2022/04/24 05:40:17;;;;;;;9.57;4.80;;;;;;;9.49;100.00;98528.59;5114744;28;20479;-74
2022/04/24 05:42:55;;;;;;;7.13;4.22;;;;;;;9.41;100.00;98532.28;5114446;28;20126;-74
2022/04/24 05:45:24;;;;;;;8.60;4.57;;;;;;;9.34;100.00;98542.13;5114638;28;20166;-72
2022/04/24 05:47:51;;;;;;;7.20;4.55;;;;;;;9.31;100.00;98553.13;5113406;28;20054;-73
2022/04/24 05:50:17;;;;;;;7.35;4.13;;;;;;;9.35;100.00;98551.72;5113335;28;20081;-74
2022/04/24 05:52:43;;;;;;;7.25;3.97;;;;;;;9.32;100.00;98560.06;5112906;28;20381;-74
2022/04/24 05:55:09;;;;;;;4.20;3.10;;;;;;;9.21;100.00;98563.38;5114359;28;20031;-75
2022/04/24 05:57:36;;;;;;;5.38;2.90;;;;;;;9.18;100.00;98569.09;5112984;28;20040;-74
2022/04/24 06:00:04;;;;;;;4.95;2.78;;;;;;;9.13;100.00;98579.53;5114452;28;20031;-74
2022/04/24 06:02:38;;;;;;;8.00;2.58;;;;;;;9.10;100.00;98580.72;5114057;28;20047;-74
2022/04/24 06:05:04;;;;;;;5.47;1.90;;;;;;;9.10;100.00;98578.06;5114386;28;20480;-75
2022/04/24 06:07:29;;;;;;;3.50;2.00;;;;;;;9.06;100.00;98582.16;5114148;28;20034;-76
2022/04/24 06:09:55;;;;;;;3.75;1.70;;;;;;;9.03;100.00;98585.22;5113128;28;20054;-77
2022/04/24 06:12:21;;;;;;;2.28;1.77;;;;;;;9.09;100.00;98594.22;5113279;28;20408;-75
2022/04/24 06:14:46;;;;;;;4.22;2.35;;;;;;;9.08;100.00;98593.41;5114295;28;20384;-76
2022/04/24 06:17:12;;;;;;;3.92;2.08;;;;;;;9.02;100.00;98588.09;5112792;28;20117;-76
2022/04/24 06:19:37;;;;;;;5.20;2.38;;;;;;;8.99;100.00;98589.31;5114217;28;20035;-77
2022/04/24 06:22:03;;;;;;;3.05;2.20;;;;;;;8.96;100.00;98587.06;5114174;28;20034;-77
2022/04/24 06:24:29;;;;;;;3.00;2.13;;;;;;;9.00;100.00;98592.78;5114336;28;20567;-76
2022/04/24 06:26:55;;;;;;;5.63;2.60;;;;;;;9.06;100.00;98594.63;5114201;28;20045;-76
2022/04/24 06:29:20;;;;;;;4.03;2.17;;;;;;;9.07;100.00;98601.59;5113939;28;20081;-76
2022/04/24 06:31:46;;;;;;;2.50;1.77;;;;;;;9.09;100.00;98603.00;5113763;28;20460;-74
2022/04/24 06:34:11;;;;;;;3.50;1.95;;;;;;;9.07;100.00;98599.75;5113794;28;20063;-74
2022/04/24 06:36:38;;;;;;;4.40;2.30;;;;;;;9.03;100.00;98597.69;5113574;28;20040;-74
2022/04/24 06:39:03;;;;;;;2.63;1.35;;;;;;;9.04;100.00;98607.28;5112549;28;20442;-73
2022/04/24 06:41:29;;;;;;;2.97;1.38;;;;;;;9.04;100.00;98610.75;5102892;28;20048;-72
2022/04/24 06:43:55;;;;;;;2.58;1.30;;;;;;;9.01;100.00;98610.38;5111022;28;20024;-72
2022/04/24 06:46:21;;;;;;;2.10;1.50;;;;;;;8.97;100.00;98609.94;5112139;28;20396;-75
2022/04/24 06:48:47;;;;;;;2.67;1.33;;;;;;;8.92;100.00;98605.22;5112456;28;20107;-75
2022/04/24 06:51:12;;;;;;;3.95;1.67;;;;;;;9.00;100.00;98616.69;5113226;28;20155;-79
2022/04/24 06:53:39;;;;;;;2.33;1.27;;;;;;;8.91;100.00;98621.38;5113010;28;20043;-76
2022/04/24 06:56:05;;;;;;;2.33;1.30;;;;;;;8.84;100.00;98616.03;5111964;28;20050;-75
2022/04/24 06:58:31;;;;;;;4.03;1.40;;;;;;;8.95;100.00;98612.81;5113206;28;20110;-76
2022/04/24 07:00:56;;;;;;;2.38;1.27;;;;;;;8.93;100.00;98606.91;5111436;28;20035;-76
2022/04/24 07:03:24;;;;;;;1.40;1.23;;;;;;;8.90;100.00;98606.47;5112442;28;20093;-76
2022/04/24 07:05:54;;;;;;;2.22;1.25;;;;;;;8.97;100.00;98613.41;5112983;28;20512;-76
2022/04/24 07:08:21;;;;;;;2.65;1.52;;;;;;;8.91;100.00;98622.19;5112951;28;20049;-76
2022/04/24 07:10:47;;;;;;;4.23;1.70;;;;;;;8.97;100.00;98615.25;5112813;28;20024;-75
2022/04/24 07:13:13;;;;;;;2.72;1.75;;;;;;;8.98;100.00;98617.69;5111847;28;20425;-75
2022/04/24 07:15:39;;;;;;;2.45;1.55;;;;;;;9.01;100.00;98619.16;5112702;28;20043;-75
2022/04/24 07:18:06;;;;;;;3.50;1.70;;;;;;;9.04;100.00;98615.25;5111453;28;20087;-75
2022/04/24 07:20:32;;;;;;;3.03;1.83;;;;;;;9.08;100.00;98611.19;5112398;27;20043;-75
2022/04/24 07:23:02;;;;;;;2.38;2.00;;;;;;;9.07;100.00;98618.34;5110262;28;20027;-76
2022/04/24 07:25:37;;;;;;;3.08;1.70;;;;;;;9.10;100.00;98623.25;5111297;28;20039;-75
2022/04/24 07:28:04;;;;;;;6.32;2.00;;;;;;;9.09;100.00;98634.06;5112725;28;20035;-75
2022/04/24 07:30:29;;;;;;;7.10;2.17;;;;;;;9.15;100.00;98623.44;5110933;28;20449;-76
2022/04/24 07:32:56;;;;;;;5.15;2.47;;;;;;;9.17;100.00;98621.41;5112070;28;20067;-75
2022/04/24 07:35:23;;;;;;;2.75;1.85;;;;;;;9.23;100.00;98633.06;5112355;28;20028;-76
2022/04/24 07:37:49;;;;;;;2.75;2.25;;;;;;;9.25;100.00;98625.69;5111381;28;20173;-76
2022/04/24 07:40:21;;;;;;;2.72;2.00;;;;;;;9.24;100.00;98624.88;5111045;28;20043;-74
2022/04/24 07:42:55;;;;;;;3.40;2.25;;;;;;;9.24;100.00;98621.41;5111426;28;20514;-75
2022/04/24 07:45:23;;;;;;;3.83;2.13;;;;;;;9.28;100.00;98633.28;5111231;28;20036;-75
2022/04/24 07:47:51;;;;;;;2.35;2.08;;;;;;;9.34;100.00;98631.66;5111305;28;20047;-76
2022/04/24 07:50:18;;;;;;;4.85;2.92;;;;;;;9.37;100.00;98634.69;5110907;28;20027;-76
2022/04/24 07:52:44;;;;;;;3.53;2.80;;;;;;;9.39;100.00;98631.81;5111721;28;20027;-75
2022/04/24 07:55:12;;;;;;;4.57;2.78;;;;;;;9.37;100.00;98637.34;5111885;28;20059;-76
2022/04/24 07:57:39;;;;;;;4.07;2.40;;;;;;;9.36;100.00;98635.72;5112188;28;20035;-75
2022/04/24 08:00:06;;;;;;;2.83;2.22;;;;;;;9.43;100.00;98635.72;5111833;28;20135;-75
2022/04/24 08:02:56;;;;;;;2.83;2.30;;;;;;;9.41;100.00;98638.59;5111288;28;20116;-75
2022/04/24 08:05:43;;;;;;;2.95;1.80;;;;;;;9.45;100.00;98642.47;5111837;28;20035;-74
2022/04/24 08:08:14;;;;;;;4.22;1.80;;;;;;;9.57;100.00;98641.84;5110847;28;20035;-74
2022/04/24 08:10:43;;;;;;;2.30;1.70;;;;;;;9.52;100.00;98645.13;5111607;28;20031;-75
2022/04/24 08:13:09;;;;;;;2.10;1.90;;;;;;;9.55;100.00;98647.38;5111226;28;20035;-76
2022/04/24 08:15:36;;;;;;;2.17;1.77;;;;;;;9.52;100.00;98650.47;5111672;28;20027;-75
2022/04/24 08:18:03;;;;;;;3.30;1.50;;;;;;;9.46;100.00;98657.41;5110692;28;20039;-75
2022/04/24 08:20:29;;;;;;;1.95;1.80;;;;;;;9.42;100.00;98644.72;5111289;28;20507;-74
2022/04/24 08:22:57;;;;;;;2.88;2.22;;;;;;;9.47;100.00;98651.06;5111106;28;20047;-74
2022/04/24 08:25:25;;;;;;;2.08;1.40;;;;;;;9.44;100.00;98646.13;5111492;28;20036;-74
2022/04/24 08:27:52;;;;;;;3.60;1.30;;;;;;;9.45;100.00;98642.47;5110948;28;20043;-75
2022/04/24 08:30:19;;;;;;;2.63;2.20;;;;;;;9.41;100.00;98649.22;5111492;28;20038;-74
2022/04/24 08:32:47;;;;;;;2.20;1.60;;;;;;;9.48;100.00;98651.88;5111057;28;20059;-74
2022/04/24 08:35:15;;;;;;;1.83;1.23;;;;;;;9.52;100.00;98645.97;5111566;28;20036;-74
2022/04/24 08:37:42;;;;;;;4.13;1.50;;;;;;;9.51;100.00;98652.28;5111710;28;20035;-75
2022/04/24 08:40:13;;;;;;;2.17;1.50;;;;;;;9.54;100.00;98653.72;5111293;28;20071;-74
2022/04/24 08:42:40;;;;;;;3.10;1.40;;;;;;;9.43;100.00;98655.13;5109670;28;20043;-75
2022/04/24 08:45:10;;;;;;;2.38;1.60;;;;;;;9.41;100.00;98654.53;5111500;28;20031;-75
2022/04/24 08:47:36;;;;;;;2.35;1.70;;;;;;;9.42;100.00;98660.66;5111596;28;20044;-75
2022/04/24 08:50:02;;;;;;;3.80;2.85;;;;;;;9.40;100.00;98663.53;5111486;28;20035;-76
2022/04/24 08:52:29;;;;;;;2.10;1.27;;;;;;;9.43;100.00;98660.44;5092237;28;20484;-74
2022/04/24 08:54:59;;;;;;;2.05;1.48;;;;;;;9.43;100.00;98667.63;5111567;28;20042;-75
2022/04/24 08:57:26;;;;;;;2.78;1.33;;;;;;;9.47;100.00;98664.34;5110382;28;20034;-74
2022/04/24 08:59:55;;;;;;;3.53;1.30;;;;;;;9.51;100.00;98664.75;5111440;28;20040;-75
2022/04/24 09:02:21;;;;;;;3.88;1.25;;;;;;;9.57;100.00;98655.13;5110413;28;20096;-75
2022/04/24 09:04:48;;;;;;;1.65;1.35;;;;;;;9.60;100.00;98663.53;5093272;28;20119;-75
2022/04/24 09:07:20;;;;;;;1.60;1.27;;;;;;;9.65;100.00;98662.91;5111627;28;20031;-75
2022/04/24 09:09:51;;;;;;;1.42;1.23;;;;;;;9.71;100.00;98670.06;5115077;28;20539;-74
2022/04/24 09:12:18;;;;;;;2.22;1.40;;;;;;;9.65;100.00;98670.88;5114400;28;20036;-75
2022/04/24 09:14:49;;;;;;;2.25;1.60;;;;;;;9.66;100.00;98678.66;5115249;28;20035;-75
2022/04/24 09:17:22;;;;;;;2.60;1.08;;;;;;;9.55;100.00;98673.97;5096583;28;20553;-72
2022/04/24 09:19:49;;;;;;;1.52;1.20;;;;;;;9.58;100.00;98670.88;5115072;28;20726;-75
2022/04/24 09:22:15;;;;;;;2.22;1.02;;;;;;;9.55;100.00;98681.13;5112811;28;20047;-73
2022/04/24 09:24:55;;;;;;;2.33;1.05;;;;;;;9.54;100.00;98671.50;5114667;28;20035;-74
2022/04/24 09:27:31;;;;;;;1.40;1.17;;;;;;;9.56;100.00;98672.13;5114668;28;20032;-73
2022/04/24 09:30:16;;;;;;;2.78;1.10;;;;;;;9.53;100.00;98678.66;5114460;28;20075;-71
2022/04/24 09:32:47;;;;;;;1.75;1.17;;;;;;;9.60;100.00;98676.81;5114120;28;20417;-74
2022/04/24 09:35:42;;;;;;;2.22;1.30;;;;;;;9.52;100.00;98683.16;5114669;28;20119;-73
2022/04/24 09:38:17;;;;;;;1.65;0.90;;;;;;;9.53;100.00;98683.97;5109828;28;20115;-71
2022/04/24 09:40:45;;;;;;;1.38;1.02;;;;;;;9.58;100.00;98689.47;5113437;28;20576;-73
2022/04/24 09:43:12;;;;;;;2.08;1.10;;;;;;;9.52;100.00;98685.00;5114220;27;20027;-72
2022/04/24 09:45:45;;;;;;;0.93;0.70;;;;;;;9.49;100.00;98688.06;5114414;28;20110;-76
2022/04/24 09:48:16;;;;;;;3.10;1.35;;;;;;;9.54;100.00;98692.78;5113589;28;20134;-76
2022/04/24 09:50:43;;;;;;;1.50;1.05;;;;;;;9.47;100.00;98690.94;5113182;28;20047;-75
2022/04/24 09:53:16;;;;;;;1.67;0.90;;;;;;;9.48;100.00;98697.88;5113958;28;20042;-74
2022/04/24 09:55:44;;;;;;;2.65;1.60;;;;;;;9.49;100.00;98701.34;5114572;28;20437;-75
2022/04/24 09:58:13;;;;;;;1.27;1.10;;;;;;;9.40;100.00;98699.94;5112821;28;20059;-75
2022/04/24 10:00:41;;;;;;;1.05;0.95;;;;;;;9.41;100.00;98704.22;5114271;28;20024;-76
2022/04/24 10:03:09;;;;;;;1.63;1.00;;;;;;;9.44;100.00;98701.94;5113642;28;20054;-74
2022/04/24 10:05:38;;;;;;;0.80;0.77;;;;;;;9.46;100.00;98702.59;5114170;28;20039;-76
2022/04/24 10:08:06;;;;;;;2.10;1.00;;;;;;;9.43;100.00;98702.97;5113048;28;20499;-76
2022/04/24 10:10:32;;;;;;;3.85;1.30;;;;;;;9.46;100.00;98704.44;5113807;27;20035;-76
2022/04/24 10:13:00;;;;;;;2.08;0.93;;;;;;;9.40;100.00;98706.06;5095130;28;20044;-74
2022/04/24 10:15:29;;;;;;;2.85;1.30;;;;;;;9.38;100.00;98716.03;5113950;28;20039;-75
2022/04/24 10:17:55;;;;;;;2.30;1.85;;;;;;;9.34;100.00;98708.72;5114000;28;20032;-75
2022/04/24 10:20:42;;;;;;;3.60;1.30;;;;;;;9.40;100.00;98710.56;5112179;28;20037;-75
2022/04/24 10:23:09;;;;;;;1.65;1.25;;;;;;;9.35;100.00;98719.13;5113359;28;20031;-76
2022/04/24 10:25:39;;;;;;;1.30;1.20;;;;;;;9.39;100.00;98719.53;5113818;28;20032;-76
2022/04/24 10:28:19;;;;;;;2.67;1.38;;;;;;;9.42;100.00;98719.13;5113853;28;20036;-76
2022/04/24 10:31:06;;;;;;;1.38;1.00;;;;;;;9.33;100.00;98712.38;5113775;28;20035;-76
2022/04/24 10:33:33;;;;;;;2.47;1.35;;;;;;;9.39;100.00;98725.69;5113157;28;20032;-76
2022/04/24 10:36:02;;;;;;;1.75;1.23;;;;;;;9.39;100.00;98722.19;5113584;28;20174;-76
2022/04/24 10:38:30;;;;;;;1.52;1.00;;;;;;;9.40;100.00;98731.81;5096158;28;20031;-75
2022/04/24 10:40:57;;;;;;;1.80;1.20;;;;;;;9.42;100.00;98732.44;5113263;28;20126;-76
2022/04/24 10:43:23;;;;;;;1.30;1.20;;;;;;;9.45;100.00;98724.88;5112820;28;20084;-76
2022/04/24 10:45:50;;;;;;;2.00;1.30;;;;;;;9.42;100.00;98740.41;5095282;28;20031;-76
2022/04/24 10:48:16;;;;;;;2.05;1.33;;;;;;;9.43;100.00;98734.88;5113445;28;20043;-75
2022/04/24 10:50:49;;;;;;;1.70;1.38;;;;;;;9.46;100.00;98741.63;5113314;28;20080;-76
2022/04/24 10:53:15;;;;;;;1.77;1.15;;;;;;;9.44;100.00;98747.13;5112760;28;20027;-76
2022/04/24 10:55:42;;;;;;;2.17;1.20;;;;;;;9.40;100.00;98745.91;5113132;28;20075;-76
2022/04/24 10:58:09;;;;;;;2.20;1.20;;;;;;;9.45;100.00;98750.59;5113110;28;20399;-76
2022/04/24 11:00:36;;;;;;;2.10;1.05;;;;;;;9.41;100.00;98747.56;5113081;28;20177;-76
2022/04/24 11:03:14;;;;;;;1.30;1.17;;;;;;;9.44;100.00;98754.28;5112544;28;20063;-77
2022/04/24 11:05:44;;;;;;;2.13;0.90;;;;;;;9.43;100.00;98748.16;5113001;27;20119;-76
2022/04/24 11:08:18;;;;;;;2.35;1.48;;;;;;;9.39;100.00;98762.03;5113017;28;20533;-75
2022/04/24 11:10:45;;;;;;;1.65;1.50;;;;;;;9.40;100.00;98753.91;5112849;28;20039;-77
2022/04/24 11:13:12;;;;;;;2.15;1.80;;;;;;;9.45;100.00;98755.94;5112205;28;20523;-75
2022/04/24 11:15:47;;;;;;;1.77;1.38;;;;;;;9.43;100.00;98758.78;5112793;28;20456;-75
2022/04/24 11:18:26;;;;;;;1.33;1.20;;;;;;;9.47;100.00;98760.03;5112553;28;20485;-74
2022/04/24 11:21:01;;;;;;;2.88;1.20;;;;;;;9.49;100.00;98760.66;5111118;28;20062;-75
2022/04/24 11:23:35;;;;;;;2.17;1.83;;;;;;;9.49;100.00;98768.63;5112161;28;20038;-75
2022/04/24 11:26:05;;;;;;;2.58;1.25;;;;;;;9.51;100.00;98765.75;5112455;28;20044;-75
2022/04/24 11:28:34;;;;;;;2.25;1.55;;;;;;;9.58;100.00;98773.72;5112425;28;20488;-75
2022/04/24 11:31:08;;;;;;;2.72;1.52;;;;;;;9.61;100.00;98773.34;5110644;28;20400;-76
2022/04/24 11:33:36;;;;;;;4.07;1.42;;;;;;;9.67;100.00;98777.84;5110794;28;20027;-75
2022/04/24 11:36:05;;;;;;;2.80;1.67;;;;;;;9.62;100.00;98775.78;5112768;28;20028;-75
2022/04/24 11:38:32;;;;;;;3.10;1.77;;;;;;;9.70;100.00;98780.09;5112240;28;20028;-76
2022/04/24 11:41:03;;;;;;;1.70;1.25;;;;;;;9.72;100.00;98778.06;5112260;28;20239;-76
2022/04/24 11:43:29;;;;;;;2.13;1.63;;;;;;;9.76;100.00;98773.97;5111659;28;20059;-76
2022/04/24 11:51:24;;;;;;;3.25;1.60;;;;;;;9.90;100.00;98786.25;5111912;28;20088;-76
2022/04/24 11:53:50;;;;;;;1.90;1.30;;;;;;;9.89;100.00;98789.94;5111694;28;20027;-76
2022/04/24 11:56:16;;;;;;;2.33;1.85;;;;;;;9.87;100.00;98786.66;5110748;28;20074;-73
2022/04/24 11:58:44;;;;;;;1.80;1.40;;;;;;;9.86;100.00;98792.19;5112037;28;20059;-76
2022/04/24 12:01:13;;;;;;;3.40;1.50;;;;;;;9.83;100.00;98789.94;5111754;28;20031;-75
2022/04/24 12:03:43;;;;;;;1.73;1.50;;;;;;;9.89;100.00;98795.25;5111377;28;20039;-76
2022/04/24 12:06:13;;;;;;;2.47;1.50;;;;;;;9.88;100.00;98790.97;5111850;28;20512;-76
2022/04/24 12:08:45;;;;;;;2.33;1.40;;;;;;;9.99;100.00;98800.19;5111864;28;20031;-76
2022/04/24 12:11:24;;;;;;;2.58;1.25;;;;;;;10.00;100.00;98799.16;5112160;28;20435;-75
2022/04/24 12:14:11;;;;;;;3.05;1.92;;;;;;;10.01;100.00;98804.25;5110139;28;20099;-75
2022/04/24 12:16:46;;;;;;;5.00;1.60;;;;;;;10.06;100.00;98807.13;5111636;28;20034;-76
2022/04/24 12:19:17;;;;;;;3.83;1.98;;;;;;;10.07;100.00;98803.44;5111790;28;20050;-77
2022/04/24 12:21:48;;;;;;;2.25;1.50;;;;;;;10.06;100.00;98812.47;5109883;28;20131;-77
2022/04/24 12:24:15;;;;;;;2.45;1.60;;;;;;;10.07;100.00;98811.44;5110952;28;20035;-76
2022/04/24 12:26:53;;;;;;;2.78;1.55;;;;;;;10.05;100.00;98820.66;5110612;28;20031;-76
2022/04/24 12:29:19;;;;;;;2.00;1.60;;;;;;;10.16;100.00;98814.69;5111893;28;20071;-77
2022/04/24 12:31:46;;;;;;;2.53;1.60;;;;;;;10.19;100.00;98826.78;5109707;28;20062;-76
2022/04/24 12:34:13;;;;;;;2.70;1.80;;;;;;;10.21;100.00;98827.41;5111880;28;20042;-77
2022/04/24 12:36:49;;;;;;;3.38;1.50;;;;;;;10.17;100.00;98823.50;5111683;28;20032;-77
2022/04/24 12:39:22;;;;;;;2.15;1.75;;;;;;;10.21;100.00;98827.41;5111535;28;20043;-76
2022/04/24 12:41:47;;;;;;;2.38;1.65;;;;;;;10.26;100.00;98830.28;5110815;28;20314;-77
2022/04/24 12:44:13;;;;;;;2.28;1.50;;;;;;;10.22;100.00;98826.38;5115846;28;20042;-77
2022/04/24 12:46:38;;;;;;;2.25;1.60;;;;;;;10.29;100.00;98829.88;5116408;28;20045;-76
2022/04/24 12:49:04;;;;;;;3.72;2.40;;;;;;;10.31;100.00;98827.84;5115577;28;20035;-75
2022/04/24 12:51:30;;;;;;;2.63;1.85;;;;;;;10.39;100.00;98826.81;5115312;28;20504;-76
2022/04/24 12:53:58;;;;;;;3.88;1.92;;;;;;;10.48;100.00;98825.56;5115635;28;20046;-75
2022/04/24 12:56:27;;;;;;;;;;;;;;;10.55;100.00;98829.84;5116003;28;20043;-76
2022/04/24 12:58:53;;;;;;;2.58;1.95;;;;;;;10.51;100.00;98833.16;5116049;28;19931;-75
2022/04/24 13:01:21;;;;;;;2.45;1.73;;;;;;;10.48;100.00;98830.88;5114009;28;20062;-76
2022/04/24 13:03:47;;;;;;;3.15;2.40;;;;;;;10.54;100.00;98830.88;5115672;27;20115;-76
2022/04/24 13:06:14;;;;;;;3.28;2.17;;;;;;;10.58;100.00;98826.78;5116030;28;20043;-78
2022/04/24 13:08:40;;;;;;;4.07;3.05;;;;;;;10.55;100.00;98829.84;5115677;28;20151;-77
2022/04/24 13:11:06;;;;;;;4.93;2.67;;;;;;;10.57;100.00;98829.66;5102925;28;20036;-76
2022/04/24 13:13:33;;;;;;;3.17;2.70;;;;;;;10.55;100.00;98832.50;5115022;28;20039;-76
2022/04/24 13:18:45;;;;;;;4.40;2.80;;;;;;;10.68;100.00;98830.84;5099935;28;20043;-77
2022/04/24 13:21:12;;;;;;;3.20;2.60;;;;;;;10.60;100.00;98831.88;5114537;28;20031;-77
2022/04/24 13:23:37;;;;;;;5.28;2.83;;;;;;;10.70;100.00;98844.78;5113703;28;20377;-76
2022/04/24 13:26:03;;;;;;;5.88;2.42;;;;;;;10.68;100.00;98836.16;5114856;28;20042;-76
2022/04/24 13:28:30;;;;;;;2.38;2.17;;;;;;;10.63;100.00;98834.16;5115568;28;20038;-75
2022/04/24 13:30:55;;;;;;;3.15;2.42;;;;;;;10.66;100.00;98838.25;5114982;28;20036;-75
2022/04/24 13:33:21;;;;;;;3.17;2.53;;;;;;;10.54;100.00;98838.84;5113400;28;20035;-75
2022/04/24 13:35:48;;;;;;;4.40;2.95;;;;;;;10.62;100.00;98839.66;5114736;28;20036;-76
2022/04/24 13:38:20;;;;;;;3.20;2.50;;;;;;;10.53;100.00;98837.22;5114882;28;20379;-75
2022/04/24 13:40:54;;;;;;;5.05;2.50;;;;;;;10.55;100.00;98851.16;5114943;28;20043;-76
2022/04/24 13:43:21;;;;;;;4.10;2.80;;;;;;;10.46;100.00;98841.75;5096204;28;20039;-76
2022/04/24 13:45:49;;;;;;;4.03;3.13;;;;;;;10.47;100.00;98845.22;5114676;28;20043;-76
2022/04/24 13:48:15;;;;;;;3.63;2.80;;;;;;;10.49;100.00;98853.81;5114581;28;20032;-76
2022/04/24 13:50:40;;;;;;;3.40;2.92;;;;;;;10.48;100.00;98853.00;5113217;28;20036;-76
2022/04/24 13:53:06;;;;;;;3.97;3.10;;;;;;;10.55;100.00;98861.78;5113586;28;20036;-75
2022/04/24 13:55:36;;;;;;;3.92;2.83;;;;;;;10.50;100.00;98856.28;5113071;28;20043;-76
2022/04/24 13:58:05;;;;;;;4.88;3.13;;;;;;;10.45;100.00;98856.09;5114350;27;20107;-76
2022/04/24 14:00:32;;;;;;;4.05;2.97;;;;;;;10.55;100.00;98866.31;5113153;28;20392;-76
2022/04/24 14:02:59;;;;;;;4.30;3.33;;;;;;;10.57;100.00;98862.44;5114029;28;20451;-76
2022/04/24 14:05:26;;;;;;;3.88;2.88;;;;;;;10.47;100.00;98863.84;5113197;28;20448;-75
2022/04/24 14:07:55;;;;;;;5.82;4.07;;;;;;;10.53;100.00;98866.50;5114358;28;20028;-76
2022/04/24 14:10:22;;;;;;;10.55;7.13;;;;;;;10.53;100.00;98877.16;5112919;28;20434;-76
2022/04/24 14:12:47;;;;;;;4.15;3.45;;;;;;;10.51;100.00;98881.06;5114006;28;20070;-76
2022/04/24 14:15:14;;;;;;;4.45;2.90;;;;;;;10.42;100.00;98876.97;5112706;28;20062;-76
2022/04/24 14:17:41;;;;;;;4.50;3.65;;;;;;;10.42;100.00;98877.78;5113929;28;20035;-77
2022/04/24 14:20:07;;;;;;;4.73;2.97;;;;;;;10.44;100.00;98874.94;5113897;28;20119;-76
2022/04/24 14:22:33;;;;;;;4.30;3.10;;;;;;;10.35;100.00;98884.13;5095340;28;20289;-76
2022/04/24 14:24:59;;;;;;;4.57;3.50;;;;;;;10.39;100.00;98878.19;5113886;28;20126;-76
2022/04/24 14:27:24;;;;;;;5.38;3.70;;;;;;;10.42;100.00;98896.41;5113733;28;20041;-76
2022/04/24 14:29:50;;;;;;;4.05;3.30;;;;;;;10.40;100.00;98901.13;5113756;28;20043;-76
2022/04/24 14:32:16;;;;;;;7.60;4.22;;;;;;;10.44;100.00;98905.03;5113808;28;20034;-76
2022/04/24 14:34:46;;;;;;;4.53;3.17;;;;;;;10.44;100.00;98904.22;5113979;28;20036;-76
2022/04/24 14:37:12;;;;;;;3.72;3.08;;;;;;;10.42;100.00;98906.25;5113639;28;20053;-75
2022/04/24 14:39:41;;;;;;;5.45;3.50;;;;;;;10.45;100.00;98904.00;5112437;28;20335;-75
2022/04/24 14:42:07;;;;;;;4.18;3.05;;;;;;;10.36;100.00;98901.72;5113255;27;20071;-77
2022/04/24 14:44:34;;;;;;;5.30;3.20;;;;;;;10.33;100.00;98906.44;5113425;28;20035;-76
2022/04/24 14:55:49;;;;;;;5.82;3.15;;;;;;;10.29;100.00;98913.19;5100382;28;20058;-76
2022/04/24 14:58:17;;;;;;;5.20;3.30;;;;;;;10.38;100.00;98919.16;5111839;28;20499;-76
2022/04/24 15:00:44;;;;;;;4.10;3.15;;;;;;;10.39;100.00;98923.44;5113038;28;20112;-75
2022/04/24 15:03:11;;;;;;;3.50;2.95;;;;;;;10.39;100.00;98923.44;5112795;28;20027;-75
2022/04/24 15:05:38;;;;;;;4.57;3.83;;;;;;;10.41;100.00;98926.72;5112116;28;20511;-76
2022/04/24 15:08:05;;;;;;;3.83;3.15;;;;;;;10.41;100.00;98926.72;5112173;28;20031;-75
2022/04/24 15:10:33;;;;;;;6.18;3.30;;;;;;;10.37;100.00;98930.84;5113097;28;20412;-76
2022/04/24 15:13:00;;;;;;;3.58;3.10;;;;;;;10.40;100.00;98938.41;5112702;28;20133;-78
2022/04/24 15:15:26;;;;;;;3.92;3.17;;;;;;;10.43;100.00;98945.16;5111763;28;20055;-77
2022/04/24 15:17:51;;;;;;;4.13;3.13;;;;;;;10.39;100.00;98946.59;5111655;28;20028;-75
2022/04/24 15:20:17;;;;;;;6.88;3.17;;;;;;;10.41;100.00;98941.88;5112724;28;20032;-76
2022/04/24 15:22:43;;;;;;;6.00;3.50;;;;;;;10.37;100.00;98945.94;5112408;28;20107;-75
2022/04/24 15:25:15;;;;;;;6.13;3.58;;;;;;;10.38;100.00;98948.44;5112652;27;20039;-76
2022/04/24 15:27:41;;;;;;;4.15;3.42;;;;;;;10.39;100.00;98950.06;5111420;28;20036;-76
2022/04/24 15:30:08;;;;;;;6.20;3.80;;;;;;;10.41;100.00;98955.19;5111365;28;20039;-75
2022/04/24 15:32:35;;;;;;;5.03;3.83;;;;;;;10.39;100.00;98960.72;5112300;28;20047;-75
2022/04/24 15:35:01;;;;;;;5.00;4.10;;;;;;;10.33;100.00;98959.69;5112629;28;20496;-76
2022/04/24 15:37:30;;;;;;;6.15;4.00;;;;;;;10.30;100.00;98960.09;5112773;28;20044;-76
2022/04/24 15:39:56;;;;;;;4.85;3.50;;;;;;;10.33;100.00;98961.53;5119514;28;20035;-80
2022/04/24 15:42:24;;;;;;;5.55;4.32;;;;;;;10.31;100.00;98960.91;5113991;28;20082;-77
2022/04/24 15:47:34;;;;;;;4.65;3.85;;;;;;;10.27;100.00;98960.50;5114342;28;20035;-76
2022/04/24 15:50:01;;;;;;;4.28;3.65;;;;;;;10.22;100.00;98959.41;5114353;28;20032;-76
2022/04/24 15:52:27;;;;;;;5.72;3.67;;;;;;;10.26;100.00;98961.53;5113822;28;20035;-77
2022/04/24 15:54:55;;;;;;;6.75;4.32;;;;;;;10.24;100.00;98960.91;5113290;28;20035;-78
2022/04/24 15:57:21;;;;;;;7.25;5.05;;;;;;;10.24;100.00;98958.25;5114944;28;20122;-77
2022/04/24 15:59:46;;;;;;;5.95;4.53;;;;;;;10.24;100.00;98958.25;5114856;28;20035;-78
2022/04/24 16:02:13;;;;;;;6.97;4.32;;;;;;;10.27;100.00;98965.00;5119181;28;20079;-79
2022/04/24 16:04:40;;;;;;;7.20;4.33;;;;;;;10.28;100.00;98963.97;5115693;28;20031;-80
2022/04/24 16:07:07;;;;;;;7.03;4.43;;;;;;;10.31;100.00;98968.91;5113911;28;20043;-76
2022/04/24 16:09:33;;;;;;;5.60;4.10;;;;;;;10.33;100.00;98969.50;5115309;28;20100;-77
2022/04/24 16:11:59;;;;;;;8.73;3.60;;;;;;;10.30;100.00;98970.75;5114840;28;20055;-77
2022/04/24 16:14:25;;;;;;;6.60;4.63;;;;;;;10.30;100.00;98969.91;5113853;28;20042;-78